createdAt,value
2022-12-31T00:01:14.932Z,100932.73
2022-12-31T00:03:41.879Z,100934.80
2022-12-31T00:06:25.815Z,100942.95
2022-12-31T00:08:53.446Z,100944.08
2022-12-31T00:11:20.586Z,100945.89
2022-12-31T00:13:48.427Z,100947.48
2022-12-31T00:16:26.715Z,100946.30
2022-12-31T00:18:55.462Z,100943.25
2022-12-31T00:21:22.369Z,100939.69
2022-12-31T00:23:49.138Z,100943.59
2022-12-31T00:26:18.197Z,100952.45
2022-12-31T00:28:45.296Z,100956.25
2022-12-31T00:31:19.898Z,100959.00
2022-12-31T00:33:46.643Z,100961.22
2022-12-31T00:36:15.517Z,100961.83
2022-12-31T00:38:43.781Z,100963.40
2022-12-31T00:41:10.717Z,100961.63
2022-12-31T00:43:37.634Z,100962.56
2022-12-31T00:46:04.578Z,100960.90
2022-12-31T00:48:31.456Z,100963.64
2022-12-31T00:50:58.233Z,100969.54
2022-12-31T00:53:25.061Z,100968.19
2022-12-31T00:55:51.797Z,100968.63
2022-12-31T00:58:18.449Z,100974.08
2022-12-31T01:00:45.063Z,100979.29
2022-12-31T01:03:11.775Z,100981.69
2022-12-31T01:05:38.536Z,100983.74
2022-12-31T01:08:05.655Z,100990.50
2022-12-31T01:10:51.074Z,100996.35
2022-12-31T01:13:17.708Z,100996.11
2022-12-31T01:15:44.522Z,100998.13
2022-12-31T01:18:11.294Z,100995.08
2022-12-31T01:20:39.447Z,100997.08
2022-12-31T01:23:06.479Z,100993.66
2022-12-31T01:25:37.664Z,100993.02
2022-12-31T01:28:05.456Z,100992.56
2022-12-31T01:30:32.239Z,100991.09
2022-12-31T01:32:58.907Z,100989.80
2022-12-31T01:35:25.880Z,100994.45
2022-12-31T01:37:52.587Z,100991.45
2022-12-31T01:40:19.222Z,100996.24
2022-12-31T01:42:46.001Z,100996.00
2022-12-31T01:45:13.539Z,100993.79
2022-12-31T01:47:44.254Z,100993.33
2022-12-31T01:50:29.263Z,100992.52
2022-12-31T01:53:03.562Z,101000.27
2022-12-31T01:55:35.548Z,101000.16
2022-12-31T01:58:11.713Z,100998.34
2022-12-31T02:00:38.540Z,101001.17
2022-12-31T02:03:05.606Z,101003.25
2022-12-31T02:05:54.034Z,100999.77
2022-12-31T02:08:21.019Z,100998.23
2022-12-31T02:10:47.656Z,101001.39
2022-12-31T02:13:14.459Z,101003.18
2022-12-31T02:16:01.297Z,101003.43
2022-12-31T02:18:43.782Z,101004.75
2022-12-31T02:21:32.524Z,101004.11
2022-12-31T02:24:17.513Z,101009.44
2022-12-31T02:27:02.445Z,101013.00
2022-12-31T02:29:48.021Z,101014.61
2022-12-31T02:32:21.902Z,101020.59
2022-12-31T02:34:51.157Z,101020.67
2022-12-31T02:37:17.832Z,101019.89
2022-12-31T02:39:44.517Z,101020.85
2022-12-31T02:42:11.629Z,101021.58
2022-12-31T02:44:41.140Z,101029.65
2022-12-31T02:47:07.917Z,101031.95
2022-12-31T02:49:43.607Z,101027.81
2022-12-31T02:52:18.432Z,101028.38
2022-12-31T02:54:51.582Z,101029.29
2022-12-31T02:57:50.853Z,101031.06
2022-12-31T03:00:38.090Z,101035.45
2022-12-31T03:03:04.853Z,101034.98
2022-12-31T03:05:34.798Z,101029.61
2022-12-31T03:08:01.429Z,101027.70
2022-12-31T03:10:28.152Z,101031.23
2022-12-31T03:12:55.126Z,101029.19
2022-12-31T03:15:22.869Z,101032.39
2022-12-31T03:17:53.950Z,101037.32
2022-12-31T03:20:40.345Z,101035.95
2022-12-31T03:23:09.386Z,101031.94
2022-12-31T03:25:36.134Z,101033.02
2022-12-31T03:28:05.019Z,101033.73
2022-12-31T03:30:32.087Z,101039.31
2022-12-31T03:32:59.222Z,101043.69
2022-12-31T03:35:26.912Z,101040.77
2022-12-31T03:37:53.963Z,101040.98
2022-12-31T03:40:21.887Z,101042.95
2022-12-31T03:42:48.613Z,101044.70
2022-12-31T03:45:15.680Z,101046.48
2022-12-31T03:47:42.523Z,101041.98
2022-12-31T03:50:09.887Z,101042.92
2022-12-31T03:52:37.179Z,101043.27
2022-12-31T03:55:04.205Z,101046.96
2022-12-31T03:57:31.071Z,101042.60
2022-12-31T03:59:57.757Z,101046.64
2022-12-31T04:02:28.801Z,101045.13
2022-12-31T04:04:56.259Z,101049.18
2022-12-31T04:07:23.083Z,101054.30
2022-12-31T04:09:49.759Z,101051.21
2022-12-31T04:12:17.100Z,101050.55
2022-12-31T04:14:43.827Z,101056.64
2022-12-31T04:17:10.497Z,101056.11
2022-12-31T04:19:37.729Z,101055.10
2022-12-31T04:22:05.008Z,101062.63
2022-12-31T04:24:31.732Z,101060.03
2022-12-31T04:27:03.601Z,101062.62
2022-12-31T04:29:34.404Z,101067.54
2022-12-31T04:32:01.168Z,101068.45
2022-12-31T04:34:27.913Z,101068.65
2022-12-31T04:36:54.702Z,101071.49
2022-12-31T04:39:21.374Z,101074.17
2022-12-31T04:43:14.555Z,101078.03
2022-12-31T04:45:41.246Z,101086.67
2022-12-31T04:48:07.978Z,101092.45
2022-12-31T04:50:34.639Z,101101.83
2022-12-31T04:53:01.277Z,101106.37
2022-12-31T04:55:28.048Z,101107.60
2022-12-31T04:57:54.685Z,101106.24
2022-12-31T05:00:21.424Z,101106.27
2022-12-31T05:02:48.192Z,101104.92
2022-12-31T05:05:14.954Z,101106.73
2022-12-31T05:07:41.741Z,101106.27
2022-12-31T05:10:08.451Z,101108.74
2022-12-31T05:12:35.118Z,101111.58
2022-12-31T05:15:01.874Z,101114.45
2022-12-31T05:17:28.603Z,101119.88
2022-12-31T05:19:55.347Z,101125.73
2022-12-31T05:22:31.438Z,101136.08
2022-12-31T05:24:58.452Z,101133.20
2022-12-31T05:27:25.205Z,101128.91
2022-12-31T05:29:51.848Z,101129.52
2022-12-31T05:32:18.484Z,101130.46
2022-12-31T05:34:45.168Z,101126.28
2022-12-31T05:37:12.169Z,101123.38
2022-12-31T05:39:38.794Z,101119.52
2022-12-31T05:42:05.472Z,101121.97
2022-12-31T05:44:32.172Z,101125.48
2022-12-31T05:46:58.817Z,101125.68
2022-12-31T05:49:25.578Z,101131.08
2022-12-31T05:51:52.240Z,101129.35
2022-12-31T05:54:19.062Z,101132.45
2022-12-31T05:56:45.795Z,101132.83
2022-12-31T05:59:12.537Z,101130.05
2022-12-31T06:01:39.282Z,101126.56
2022-12-31T06:04:06.149Z,101128.46
2022-12-31T06:06:32.842Z,101126.03
2022-12-31T06:08:59.499Z,101123.73
2022-12-31T06:11:26.123Z,101132.11
2022-12-31T06:13:52.802Z,101137.88
2022-12-31T06:16:19.544Z,101141.86
2022-12-31T06:18:50.790Z,101132.59
2022-12-31T06:21:18.102Z,101131.13
2022-12-31T06:23:44.754Z,101127.05
2022-12-31T06:26:11.489Z,101122.24
2022-12-31T06:28:38.210Z,101119.48
2022-12-31T06:31:06.630Z,101122.20
2022-12-31T06:33:33.522Z,101126.96
2022-12-31T06:36:01.978Z,101126.21
2022-12-31T06:38:29.796Z,101128.91
2022-12-31T06:40:56.584Z,101132.23
2022-12-31T06:43:23.381Z,101134.05
2022-12-31T06:45:50.049Z,101138.30
2022-12-31T06:48:16.855Z,101138.70
2022-12-31T06:50:43.518Z,101142.59
2022-12-31T06:53:11.739Z,101140.48
2022-12-31T06:55:38.872Z,101148.79
2022-12-31T06:58:05.683Z,101149.25
2022-12-31T07:00:32.957Z,101151.30
2022-12-31T07:03:02.795Z,101149.47
2022-12-31T07:05:52.730Z,101157.73
2022-12-31T07:08:46.369Z,101158.77
2022-12-31T07:11:35.312Z,101161.79
2022-12-31T07:14:27.307Z,101159.60
2022-12-31T07:17:09.324Z,101155.55
2022-12-31T07:19:58.139Z,101150.48
2022-12-31T07:22:25.094Z,101149.05
2022-12-31T07:24:52.092Z,101144.85
2022-12-31T07:27:34.334Z,101152.17
2022-12-31T07:30:04.204Z,101153.14
2022-12-31T07:32:49.509Z,101157.95
2022-12-31T07:35:51.322Z,101155.45
2022-12-31T07:38:27.225Z,101152.73
2022-12-31T07:41:23.805Z,101146.83
2022-12-31T07:44:01.807Z,101150.51
2022-12-31T07:46:40.839Z,101151.98
2022-12-31T07:49:12.339Z,101146.63
2022-12-31T07:51:39.706Z,101146.30
2022-12-31T07:54:11.856Z,101147.33
2022-12-31T07:56:40.680Z,101147.27
2022-12-31T07:59:26.604Z,101148.77
2022-12-31T08:02:04.788Z,101161.51
2022-12-31T08:04:37.803Z,101170.77
2022-12-31T08:07:32.728Z,101167.14
2022-12-31T08:10:23.026Z,101163.29
2022-12-31T08:12:50.253Z,101157.81
2022-12-31T08:15:18.233Z,101146.42
2022-12-31T08:17:45.193Z,101150.14
2022-12-31T08:20:16.733Z,101146.77
2022-12-31T08:23:05.261Z,101154.71
2022-12-31T08:25:40.588Z,101160.44
2022-12-31T08:28:19.823Z,101159.76
2022-12-31T08:31:02.151Z,101157.82
2022-12-31T08:34:10.056Z,101151.16
2022-12-31T08:36:48.956Z,101145.83
2022-12-31T08:39:41.965Z,101146.45
2022-12-31T08:42:37.035Z,101139.33
2022-12-31T08:45:37.836Z,101140.88
2022-12-31T08:48:36.580Z,101135.12
2022-12-31T08:51:03.437Z,101134.46
2022-12-31T08:53:30.445Z,101133.54
2022-12-31T08:56:02.791Z,101128.40
2022-12-31T08:58:48.275Z,101127.69
2022-12-31T09:01:15.061Z,101125.89
2022-12-31T09:03:53.248Z,101123.41
2022-12-31T09:06:25.995Z,101113.86
2022-12-31T09:09:02.573Z,101105.66
2022-12-31T09:11:53.022Z,101101.03
2022-12-31T09:14:57.759Z,101104.13
2022-12-31T09:17:31.493Z,101106.26
2022-12-31T09:19:58.488Z,101103.02
2022-12-31T09:22:25.433Z,101103.72
2022-12-31T09:24:52.311Z,101102.48
2022-12-31T09:27:27.732Z,101101.16
2022-12-31T09:29:57.654Z,101097.65
2022-12-31T09:32:41.843Z,101091.98
2022-12-31T09:35:24.087Z,101091.08
2022-12-31T09:37:53.255Z,101088.67
2022-12-31T09:40:29.081Z,101088.41
2022-12-31T09:43:02.100Z,101090.70
2022-12-31T09:46:07.628Z,101087.66
2022-12-31T09:49:06.968Z,101095.41
2022-12-31T09:51:38.248Z,101100.42
2022-12-31T09:54:27.024Z,101095.96
2022-12-31T09:57:20.122Z,101090.63
2022-12-31T10:00:03.804Z,101082.15
2022-12-31T10:02:48.346Z,101065.30
2022-12-31T10:05:33.942Z,101061.57
2022-12-31T10:08:06.759Z,101059.80
2022-12-31T10:10:39.847Z,101054.04
2022-12-31T10:13:28.619Z,101046.48
2022-12-31T10:16:20.144Z,101046.81
2022-12-31T10:19:17.722Z,101040.30
2022-12-31T10:22:03.160Z,101032.84
2022-12-31T10:24:51.733Z,101028.29
2022-12-31T15:16:54.899Z,100891.57
2022-12-31T15:19:40.290Z,100889.06
2022-12-31T15:22:14.476Z,100887.77
2022-12-31T15:24:45.636Z,100885.45
2022-12-31T15:27:34.390Z,100885.46
2022-12-31T15:30:01.167Z,100895.39
2022-12-31T15:32:34.692Z,100896.45
2022-12-31T15:35:20.988Z,100900.85
2022-12-31T15:38:10.380Z,100892.94
2022-12-31T15:40:44.354Z,100891.87
2022-12-31T15:43:20.112Z,100888.95
2022-12-31T15:45:48.286Z,100885.00
2022-12-31T15:48:22.198Z,100885.86
2022-12-31T15:50:49.990Z,100882.52
2022-12-31T15:53:40.076Z,100888.77
2022-12-31T15:56:08.117Z,100895.45
2022-12-31T15:58:36.056Z,100889.13
2022-12-31T16:01:19.074Z,100895.83
2022-12-31T16:03:48.234Z,100888.80
2022-12-31T16:06:15.713Z,100882.76
2022-12-31T16:08:47.983Z,100885.92
2022-12-31T16:11:14.809Z,100889.86
2022-12-31T16:13:44.310Z,100887.79
2022-12-31T16:16:31.629Z,100887.69
2022-12-31T16:19:00.173Z,100881.64
2022-12-31T16:21:33.630Z,100879.96
2022-12-31T16:24:30.612Z,100880.76
2022-12-31T16:27:02.327Z,100879.11
2022-12-31T16:29:30.842Z,100878.52
2022-12-31T16:31:57.508Z,100872.33
2022-12-31T16:34:26.657Z,100874.54
2022-12-31T16:37:05.333Z,100870.40
2022-12-31T16:39:39.156Z,100866.27
2022-12-31T16:42:16.903Z,100862.55
2022-12-31T16:44:43.645Z,100853.39
2022-12-31T16:47:18.147Z,100852.00
2022-12-31T16:49:45.582Z,100849.59
2022-12-31T16:52:32.422Z,100854.77
2022-12-31T16:54:59.184Z,100853.72
2022-12-31T16:57:27.345Z,100857.40
2022-12-31T17:00:02.454Z,100857.73
2022-12-31T17:02:39.952Z,100854.41
2022-12-31T17:05:21.661Z,100855.89
2022-12-31T17:07:48.422Z,100856.08
2022-12-31T17:10:23.375Z,100854.67
2022-12-31T17:13:27.642Z,100857.43
2022-12-31T17:15:44.804Z,100852.11
2022-12-31T17:18:17.537Z,100854.34
2022-12-31T17:20:44.232Z,100847.66
2022-12-31T17:23:11.786Z,100844.50
2022-12-31T17:25:38.596Z,100843.60
2022-12-31T17:28:07.229Z,100839.54
2022-12-31T17:30:34.742Z,100842.65
2022-12-31T17:33:05.404Z,100849.37
2022-12-31T17:35:36.876Z,100846.42
2022-12-31T17:38:21.312Z,100844.40
2022-12-31T17:41:08.237Z,100841.16
2022-12-31T17:43:38.419Z,100832.17
2022-12-31T17:46:16.094Z,100840.63
2022-12-31T17:48:44.068Z,100841.80
2022-12-31T17:51:10.936Z,100838.87
2022-12-31T17:53:38.197Z,100839.91
2022-12-31T17:56:07.408Z,100838.60
2022-12-31T17:58:51.408Z,100829.18
2022-12-31T18:01:19.105Z,100833.98
2022-12-31T18:03:46.031Z,100836.97
2022-12-31T18:06:16.479Z,100833.52
2022-12-31T18:08:43.699Z,100832.63
2022-12-31T18:11:14.514Z,100834.89
2022-12-31T18:13:41.285Z,100842.04
2022-12-31T18:16:08.152Z,100850.95
2022-12-31T18:18:37.345Z,100850.05
2022-12-31T18:21:05.425Z,100849.98
2022-12-31T18:23:42.885Z,100850.02
2022-12-31T18:26:13.055Z,100853.32
2022-12-31T18:28:39.760Z,100852.95
2022-12-31T18:31:06.532Z,100860.95
2022-12-31T18:33:33.420Z,100866.22
2022-12-31T18:36:09.218Z,100876.38
2022-12-31T18:38:36.500Z,100886.86
2022-12-31T18:41:03.725Z,100881.81
2022-12-31T18:43:30.379Z,100878.44
2022-12-31T18:45:57.176Z,100880.40
2022-12-31T18:48:24.002Z,100877.21
2022-12-31T18:50:50.710Z,100876.27
2022-12-31T18:53:19.472Z,100872.09
2022-12-31T18:55:53.674Z,100875.30
2022-12-31T18:58:20.668Z,100868.60
2022-12-31T19:00:48.122Z,100860.08
2022-12-31T19:03:20.129Z,100842.34
2022-12-31T19:05:49.863Z,100833.50
2022-12-31T19:08:20.552Z,100831.60
2022-12-31T19:10:47.959Z,100822.85
2022-12-31T19:13:15.663Z,100811.80
2022-12-31T19:15:44.376Z,100808.52
2022-12-31T19:18:11.715Z,100799.77
2022-12-31T19:20:39.069Z,100791.69
2022-12-31T19:23:05.899Z,100785.48
2022-12-31T19:25:34.354Z,100788.65
2022-12-31T19:28:02.238Z,100791.67
2022-12-31T19:30:31.040Z,100792.31
2022-12-31T19:32:58.059Z,100794.41
2022-12-31T19:35:25.021Z,100796.81
2022-12-31T19:37:52.549Z,100795.38
2022-12-31T19:40:27.339Z,100800.38
2022-12-31T19:42:55.090Z,100803.31
2022-12-31T19:45:26.410Z,100804.98
2022-12-31T19:47:53.528Z,100806.11
2022-12-31T19:50:22.256Z,100812.09
2022-12-31T19:52:50.102Z,100809.34
2022-12-31T19:55:19.410Z,100816.91
2022-12-31T19:57:46.822Z,100817.60
2022-12-31T20:00:15.046Z,100812.45
2022-12-31T20:02:42.351Z,100804.89
2022-12-31T20:05:09.992Z,100799.23
2022-12-31T20:07:36.837Z,100797.84
2022-12-31T20:10:04.934Z,100800.65
2022-12-31T20:12:32.031Z,100805.22
2022-12-31T20:14:58.707Z,100803.45
2022-12-31T20:17:25.498Z,100804.08
2022-12-31T20:19:52.236Z,100796.89
2022-12-31T20:22:19.082Z,100797.73
2022-12-31T20:24:45.832Z,100796.86
2022-12-31T20:27:18.309Z,100793.48
2022-12-31T20:29:45.518Z,100794.57
2022-12-31T20:32:12.193Z,100803.70
2022-12-31T20:34:38.916Z,100803.33
2022-12-31T20:37:05.547Z,100804.55
2022-12-31T20:39:32.238Z,100805.33
2022-12-31T20:41:58.972Z,100809.83
2022-12-31T20:44:25.663Z,100812.61
2022-12-31T20:46:52.390Z,100813.05
2022-12-31T20:49:37.088Z,100817.05
2022-12-31T20:52:05.940Z,100818.73
2022-12-31T20:54:32.774Z,100823.84
2022-12-31T20:57:00.280Z,100826.05
2022-12-31T20:59:27.770Z,100829.84
2022-12-31T21:02:29.761Z,100828.14
2022-12-31T21:04:41.395Z,100821.61
2022-12-31T21:07:08.272Z,100810.34
2022-12-31T21:09:35.014Z,100813.50
2022-12-31T21:12:20.549Z,100814.64
2022-12-31T21:14:47.244Z,100815.59
2022-12-31T21:17:13.979Z,100805.15
2022-12-31T21:19:40.808Z,100807.57
2022-12-31T21:22:07.525Z,100804.44
2022-12-31T21:24:34.357Z,100791.00
2022-12-31T21:27:00.999Z,100783.89
2022-12-31T21:29:32.642Z,100775.38
2022-12-31T21:32:01.215Z,100770.79
2022-12-31T21:34:27.905Z,100768.71
2022-12-31T21:36:54.551Z,100771.34
2022-12-31T21:39:21.384Z,100774.55
2022-12-31T21:41:50.973Z,100777.30
2022-12-31T21:44:20.891Z,100784.15
2022-12-31T21:47:35.004Z,100788.30
2022-12-31T21:50:03.204Z,100788.00
2022-12-31T21:52:35.206Z,100780.14
2022-12-31T21:55:21.678Z,100777.45
2022-12-31T21:58:24.082Z,100774.63
2022-12-31T22:00:54.879Z,100772.05
2022-12-31T22:03:24.345Z,100772.95
2022-12-31T22:05:52.072Z,100771.55
2022-12-31T22:08:19.922Z,100760.80
2022-12-31T22:10:52.088Z,100756.21
2022-12-31T22:13:19.645Z,100758.19
2022-12-31T22:15:47.166Z,100751.95
2022-12-31T22:18:14.718Z,100756.34
2022-12-31T22:20:41.510Z,100746.46
2022-12-31T22:23:08.172Z,100739.16
2022-12-31T22:25:35.509Z,100748.56
2022-12-31T22:28:36.842Z,100748.94
2022-12-31T22:30:49.713Z,100749.67
2022-12-31T22:33:16.560Z,100749.52
2022-12-31T22:35:43.194Z,100746.09
2022-12-31T22:38:12.121Z,100747.04
2022-12-31T22:40:39.409Z,100743.59
2022-12-31T22:43:06.141Z,100739.80
2022-12-31T22:45:32.899Z,100741.73
2022-12-31T22:47:59.564Z,100743.61
2022-12-31T22:50:26.208Z,100742.83
2022-12-31T22:52:52.953Z,100736.65
2022-12-31T22:55:19.592Z,100731.15
2022-12-31T22:57:46.243Z,100728.41
2022-12-31T23:00:13.795Z,100723.33
2022-12-31T23:02:42.221Z,100722.77
2022-12-31T23:05:14.921Z,100732.98
2022-12-31T23:07:42.624Z,100731.40
2022-12-31T23:10:28.660Z,100737.13
2022-12-31T23:12:55.419Z,100739.84
2022-12-31T23:15:40.743Z,100744.17
2022-12-31T23:18:26.253Z,100744.34
2022-12-31T23:21:12.038Z,100742.66
2022-12-31T23:23:38.775Z,100751.15
2022-12-31T23:26:07.053Z,100741.94
2022-12-31T23:28:33.792Z,100729.20
2022-12-31T23:31:05.997Z,100731.66
2022-12-31T23:33:32.691Z,100730.98
2022-12-31T23:36:06.172Z,100720.05
2022-12-31T23:38:33.479Z,100711.58
2022-12-31T23:41:00.659Z,100711.84
2022-12-31T23:43:28.407Z,100712.98
2022-12-31T23:45:55.260Z,100717.95
2022-12-31T23:48:21.962Z,100713.94
2022-12-31T23:50:53.569Z,100717.18
2022-12-31T23:53:24.454Z,100712.50
2022-12-31T23:55:51.906Z,100709.13
2022-12-31T23:58:18.550Z,100701.09
